Terminal Aerodrome Forecast
Issued by NWS

Home | Current Version | Previous Version | Text Only | Print | Product List | Glossary On
Versions: 1 2 3 4 5 6 7 8 9 10 11 12 13 14 15 16 17 18 19 20 21 22 23 24 25 26 27 28 29 30 31 32 33 34 35 36 37 38 39 40 41 42
000
FTUS45 KBOU 250538
TAFAPA
TAF
KAPA 250538Z 2506/2606 22006KT P6SM FEW100 SCT200
     FM251400 15006KT P6SM SCT200
     FM251900 15012KT P6SM FEW080 BKN140
     FM252100 35015KT P6SM VCTS SCT080CB BKN140
      TEMPO 2521/2601 VRB20G30KT -TSRA BKN080CB
     FM260100 32012KT P6SM SCT060 BKN120
      TEMPO 2601/2605 -SHRA BKN060=

USA.gov is the U.S. government's official web portal to all federal, state and local government web resources and services.